Gresham, Oregon
Current Conditions -  °F | °C
As of 2:53 PM on Thursday 25 Dec 2014 (Local Time) from KTTD Reporting Station
Overcast Overcast  
Wind Chill: 47°   Ceiling: 2900
Heat Index: 47°   Visibility: 10mi
Dew Point: 41°   Wind: 3mph
Humidity: 80%   Direction: 10°N
Pressure: 30.24"   Gusts: NA
Location:  45.51°N, 122.43°W
Report Text: KTTD 252253Z 01003KT 10SM SCT021 BKN029 OVC033 08/05 A3024 RMK AO2 RAB23E52 SLP238 P0001 T00830050
Loading
Personal Weather Stations






























Interactive Weather Map New forecast layout! Learn more

10-Day Weather Forecast

Advertisements
Track Severe Weather on mobile